createdAt,value
2023-05-13T00:00:18.325Z,72.30
2023-05-13T00:03:06.507Z,74.62
2023-05-13T00:05:34.206Z,74.06
2023-05-13T00:08:06.952Z,73.64
2023-05-13T00:10:35.707Z,73.97
2023-05-13T00:13:03.423Z,73.49
2023-05-13T00:15:31.777Z,73.24
2023-05-13T00:17:59.570Z,73.08
2023-05-13T00:20:27.470Z,73.31
2023-05-13T00:22:55.745Z,73.15
2023-05-13T00:25:23.399Z,73.16
2023-05-13T00:27:51.602Z,73.41
2023-05-13T00:30:21.172Z,74.04
2023-05-13T00:32:49.145Z,74.84
2023-05-13T00:35:16.872Z,76.00
2023-05-13T00:37:45.046Z,74.54
2023-05-13T00:40:22.196Z,73.88
2023-05-13T00:42:50.635Z,72.77
2023-05-13T00:45:18.619Z,73.68
2023-05-13T00:47:47.534Z,77.90
2023-05-13T00:50:15.650Z,75.44
2023-05-13T00:52:44.308Z,74.92
2023-05-13T00:55:12.405Z,73.93
2023-05-13T00:57:42.905Z,74.84
2023-05-13T01:00:11.357Z,76.60
2023-05-13T01:02:39.023Z,73.70
2023-05-13T01:05:47.964Z,74.46
2023-05-13T01:08:57.101Z,76.67
2023-05-13T01:11:28.594Z,77.33
2023-05-13T01:14:06.840Z,76.29
2023-05-13T01:16:49.274Z,77.11
2023-05-13T01:19:44.437Z,76.93
2023-05-13T01:22:13.265Z,77.19
2023-05-13T01:24:41.160Z,76.92
2023-05-13T01:27:09.509Z,76.17
2023-05-13T01:29:38.004Z,76.52
2023-05-13T01:32:07.629Z,77.43
2023-05-13T01:34:36.689Z,76.86
2023-05-13T01:37:05.020Z,77.01
2023-05-13T01:39:35.013Z,77.00
2023-05-13T01:42:04.440Z,76.83
2023-05-13T01:44:32.365Z,76.56
2023-05-13T01:47:00.310Z,76.54
2023-05-13T01:49:28.099Z,76.96
2023-05-13T01:51:56.099Z,77.12
2023-05-13T01:54:25.696Z,76.37
2023-05-13T01:56:56.230Z,77.26
2023-05-13T01:59:24.045Z,76.95
2023-05-13T02:01:51.973Z,77.41
2023-05-13T02:04:19.744Z,77.36
2023-05-13T02:06:47.750Z,77.39
2023-05-13T02:09:16.252Z,77.42
2023-05-13T02:11:45.581Z,77.50
2023-05-13T02:14:13.245Z,77.78
2023-05-13T02:16:40.958Z,77.65
2023-05-13T02:19:08.745Z,77.45
2023-05-13T02:21:36.505Z,77.20
2023-05-13T02:24:04.365Z,77.08
2023-05-13T02:26:32.588Z,77.67
2023-05-13T02:29:00.447Z,77.47
2023-05-13T02:31:28.228Z,77.69
2023-05-13T02:33:56.099Z,77.33
2023-05-13T02:36:24.079Z,77.50
2023-05-13T02:38:52.056Z,77.58
2023-05-13T02:41:20.229Z,77.79
2023-05-13T02:43:48.288Z,77.47
2023-05-13T02:46:16.266Z,78.57
2023-05-13T02:48:44.807Z,78.14
2023-05-13T02:51:12.526Z,77.81
2023-05-13T02:53:41.731Z,78.09
2023-05-13T02:56:09.712Z,78.35
2023-05-13T02:58:37.566Z,78.14
2023-05-13T03:01:05.393Z,78.28
2023-05-13T03:03:33.777Z,78.10
2023-05-13T03:06:02.054Z,77.70
2023-05-13T03:08:30.008Z,77.49
2023-05-13T03:10:59.042Z,77.54
2023-05-13T03:13:26.939Z,78.37
2023-05-13T03:15:54.869Z,78.06
2023-05-13T03:18:22.756Z,78.13
2023-05-13T03:20:50.570Z,78.38
2023-05-13T03:23:19.702Z,78.75
2023-05-13T03:25:48.174Z,78.71
2023-05-13T03:28:15.939Z,78.62
2023-05-13T03:30:44.620Z,78.91
2023-05-13T03:33:18.256Z,79.59
2023-05-13T03:35:48.514Z,79.73
2023-05-13T03:38:16.772Z,79.24
2023-05-13T03:40:47.157Z,78.32
2023-05-13T03:43:15.332Z,79.06
2023-05-13T03:45:48.351Z,79.28
2023-05-13T03:48:18.570Z,78.70
2023-05-13T03:50:46.588Z,77.73
2023-05-13T03:53:15.987Z,78.89
2023-05-13T03:55:43.774Z,78.66
2023-05-13T03:58:16.188Z,78.33
2023-05-13T04:00:46.969Z,77.07
2023-05-13T04:03:19.355Z,77.96
2023-05-13T04:05:47.844Z,79.45
2023-05-13T04:08:15.919Z,79.57
2023-05-13T04:10:44.221Z,79.41
2023-05-13T04:13:12.039Z,77.80
2023-05-13T04:15:39.706Z,79.03
2023-05-13T04:18:07.744Z,78.73
2023-05-13T04:20:38.491Z,79.58
2023-05-13T04:23:06.721Z,79.18
2023-05-13T04:25:35.745Z,77.90
2023-05-13T04:28:03.637Z,78.75
2023-05-13T04:30:52.473Z,79.38
2023-05-13T04:33:20.421Z,78.45
2023-05-13T04:35:49.429Z,76.00
2023-05-13T04:38:18.267Z,80.44
2023-05-13T04:40:47.916Z,81.77
2023-05-13T04:43:22.854Z,79.18
2023-05-13T04:45:54.409Z,78.75
2023-05-13T04:48:22.845Z,78.21
2023-05-13T04:50:51.050Z,79.31
2023-05-13T04:53:19.693Z,78.13
2023-05-13T04:55:49.297Z,80.12
2023-05-13T04:58:17.110Z,82.61
2023-05-13T05:00:44.949Z,79.14
2023-05-13T05:03:13.713Z,82.07
2023-05-13T05:05:41.657Z,80.10
2023-05-13T05:08:11.825Z,77.16
2023-05-13T05:10:39.571Z,78.87
2023-05-13T05:13:10.677Z,76.62
2023-05-13T05:15:38.911Z,76.86
2023-05-13T05:18:08.116Z,75.18
2023-05-13T05:20:38.427Z,75.24
2023-05-13T05:23:10.642Z,73.57
2023-05-13T05:25:39.171Z,73.08
2023-05-13T05:28:08.247Z,71.64
2023-05-13T05:30:40.994Z,71.87
2023-05-13T05:33:15.348Z,70.54
2023-05-13T05:35:44.037Z,69.84
2023-05-13T05:38:14.932Z,69.15
2023-05-13T05:40:44.431Z,69.75
2023-05-13T05:43:12.970Z,69.25
2023-05-13T05:45:40.799Z,68.49
2023-05-13T05:48:11.071Z,67.72
2023-05-13T05:50:40.940Z,66.77
2023-05-13T05:53:09.821Z,66.37
2023-05-13T05:55:38.810Z,67.60
2023-05-13T05:58:07.343Z,67.18
2023-05-13T06:00:36.872Z,66.09
2023-05-13T06:03:04.770Z,64.91
2023-05-13T06:05:32.746Z,65.79
2023-05-13T06:08:00.525Z,65.10
2023-05-13T06:10:28.657Z,65.76
2023-05-13T06:12:56.756Z,66.22
2023-05-13T06:15:24.487Z,65.12
2023-05-13T06:17:52.173Z,62.92
2023-05-13T06:20:20.092Z,63.30
2023-05-13T06:22:48.257Z,62.44
2023-05-13T06:25:16.223Z,63.44
2023-05-13T06:27:44.381Z,60.96
2023-05-13T06:30:12.408Z,61.31
2023-05-13T06:32:50.373Z,60.58
2023-05-13T06:35:28.886Z,61.11
2023-05-13T06:37:56.652Z,59.83
2023-05-13T06:40:24.781Z,59.12
2023-05-13T06:42:52.674Z,58.45
2023-05-13T06:45:23.787Z,58.40
2023-05-13T06:47:53.138Z,55.05
2023-05-13T06:50:21.113Z,56.39
2023-05-13T06:52:49.222Z,53.82
2023-05-13T06:55:18.890Z,55.87
2023-05-13T06:57:47.420Z,55.73
2023-05-13T07:00:15.827Z,54.75
2023-05-13T07:02:43.839Z,53.10
2023-05-13T07:05:12.603Z,51.57
2023-05-13T07:07:40.424Z,49.96
2023-05-13T07:10:08.592Z,51.35
2023-05-13T07:12:36.355Z,49.43
2023-05-13T07:15:04.584Z,47.98
2023-05-13T07:17:32.421Z,48.64
2023-05-13T07:20:00.300Z,46.23
2023-05-13T07:22:28.460Z,45.72
2023-05-13T07:24:57.070Z,44.28
2023-05-13T07:27:24.817Z,41.80
2023-05-13T07:29:52.508Z,43.60
2023-05-13T07:32:20.149Z,43.61
2023-05-13T07:34:47.803Z,40.80
2023-05-13T07:37:15.490Z,41.89
2023-05-13T07:39:43.144Z,38.61
2023-05-13T07:42:10.824Z,39.10
2023-05-13T07:44:38.434Z,37.65
2023-05-13T07:47:06.464Z,37.38
2023-05-13T07:49:34.172Z,38.80
2023-05-13T07:52:01.978Z,33.61
2023-05-13T07:54:29.916Z,35.93
2023-05-13T07:56:57.628Z,37.69
2023-05-13T07:59:25.551Z,34.93
2023-05-13T08:01:54.554Z,35.09
2023-05-13T08:04:22.352Z,34.16
2023-05-13T08:06:50.125Z,33.80
2023-05-13T08:09:17.844Z,34.94
2023-05-13T08:11:45.574Z,33.31
2023-05-13T08:14:13.265Z,33.11
2023-05-13T08:16:41.600Z,34.90
2023-05-13T08:19:09.816Z,34.65
2023-05-13T08:21:37.524Z,32.84
2023-05-13T08:24:06.029Z,33.45
2023-05-13T08:26:33.909Z,33.44
2023-05-13T08:29:01.636Z,32.71
2023-05-13T08:31:29.527Z,31.69
2023-05-13T08:33:57.571Z,31.33
2023-05-13T08:36:26.438Z,31.64
2023-05-13T08:38:54.186Z,31.70
2023-05-13T08:41:22.869Z,30.77
2023-05-13T08:43:52.389Z,29.14
2023-05-13T08:46:25.067Z,30.66
2023-05-13T08:48:54.827Z,29.82
2023-05-13T08:51:22.798Z,30.13
2023-05-13T08:53:52.234Z,30.22
2023-05-13T08:56:22.194Z,27.32
2023-05-13T08:58:49.932Z,26.87
2023-05-13T09:01:17.836Z,27.56
2023-05-13T09:04:01.236Z,27.72
2023-05-13T09:06:29.675Z,27.64
2023-05-13T09:08:57.767Z,26.76
2023-05-13T09:11:26.258Z,28.35
2023-05-13T09:14:01.587Z,26.89
2023-05-13T09:16:29.937Z,26.92
2023-05-13T09:19:00.438Z,27.24
2023-05-13T09:21:31.656Z,26.82
2023-05-13T09:24:11.168Z,27.47
2023-05-13T09:26:40.913Z,28.83
2023-05-13T09:29:23.766Z,27.01
2023-05-13T09:31:56.366Z,27.24
2023-05-13T09:34:32.132Z,28.31
2023-05-13T09:37:08.851Z,27.41
2023-05-13T09:39:43.843Z,27.38
2023-05-13T09:42:19.530Z,28.20
2023-05-13T09:44:48.956Z,27.50
2023-05-13T09:47:17.414Z,27.54
2023-05-13T09:49:53.252Z,27.25
2023-05-13T09:52:22.400Z,26.64
2023-05-13T09:54:50.073Z,26.52
2023-05-13T09:57:17.756Z,25.65
2023-05-13T09:59:45.414Z,25.95
2023-05-13T10:02:15.399Z,26.28
2023-05-13T10:04:43.458Z,26.69
2023-05-13T10:07:12.376Z,26.15
2023-05-13T10:09:40.631Z,26.40
2023-05-13T10:12:12.032Z,25.87
2023-05-13T10:14:40.200Z,25.31
2023-05-13T10:17:08.049Z,25.52
2023-05-13T10:19:37.088Z,25.82
2023-05-13T10:22:05.701Z,25.27
2023-05-13T10:24:35.446Z,25.32
2023-05-13T10:27:06.543Z,26.08
2023-05-13T10:29:37.701Z,23.45
2023-05-13T10:32:07.070Z,23.45
2023-05-13T10:34:37.239Z,23.31
2023-05-13T10:37:13.881Z,23.85
2023-05-13T10:40:06.478Z,24.18
2023-05-13T10:42:43.887Z,25.12
2023-05-13T10:45:11.615Z,24.59
2023-05-13T10:47:39.485Z,24.96
2023-05-13T10:50:23.480Z,25.63
2023-05-13T10:52:56.850Z,25.29
2023-05-13T10:55:26.801Z,26.41
2023-05-13T10:58:14.840Z,26.71
2023-05-13T11:00:45.392Z,25.78
2023-05-13T11:03:15.825Z,27.16
2023-05-13T11:05:45.618Z,25.44
2023-05-13T11:08:36.701Z,25.47
2023-05-13T11:11:27.475Z,25.74
2023-05-13T11:14:20.744Z,25.58
2023-05-13T11:17:00.738Z,25.98
2023-05-13T11:19:30.672Z,26.57
2023-05-13T11:22:22.153Z,26.49
2023-05-13T11:25:10.529Z,26.75
2023-05-13T11:27:40.373Z,27.23
2023-05-13T11:30:22.500Z,27.59
2023-05-13T11:32:51.012Z,25.95
2023-05-13T11:35:22.624Z,25.73
2023-05-13T11:37:51.116Z,26.10
2023-05-13T11:40:26.980Z,25.67
2023-05-13T11:42:55.705Z,25.87
2023-05-13T11:45:25.126Z,26.75
2023-05-13T11:47:54.413Z,26.63
2023-05-13T11:50:32.823Z,26.82
2023-05-13T11:53:01.864Z,25.84
2023-05-13T11:55:37.545Z,25.55
2023-05-13T11:58:06.431Z,24.54
2023-05-13T12:00:35.142Z,24.87
2023-05-13T12:03:10.653Z,23.31
2023-05-13T12:05:41.436Z,24.06
2023-05-13T12:08:09.970Z,24.60
2023-05-13T12:10:46.452Z,26.36
2023-05-13T12:13:14.376Z,25.72
2023-05-13T12:15:42.587Z,26.61
2023-05-13T12:18:10.471Z,24.71
2023-05-13T12:20:38.575Z,24.37
2023-05-13T12:23:06.621Z,23.97
2023-05-13T12:25:38.383Z,23.74
2023-05-13T12:28:18.068Z,24.47
2023-05-13T12:30:51.778Z,24.92
2023-05-13T12:33:21.716Z,24.85
2023-05-13T12:35:52.006Z,24.76
2023-05-13T12:38:22.097Z,24.54
2023-05-13T12:40:50.692Z,24.75
2023-05-13T12:43:19.725Z,25.80
2023-05-13T12:45:52.604Z,26.44
2023-05-13T12:48:23.899Z,27.12
2023-05-13T12:50:51.620Z,26.73
2023-05-13T12:53:19.247Z,25.62
2023-05-13T12:55:46.950Z,25.62
2023-05-13T12:58:14.641Z,25.10
2023-05-13T13:00:42.641Z,25.49
2023-05-13T13:03:11.070Z,25.05
2023-05-13T13:05:38.818Z,24.66
2023-05-13T13:08:06.579Z,24.58
2023-05-13T13:10:34.917Z,24.79
2023-05-13T13:13:02.658Z,24.22
2023-05-13T13:15:30.691Z,24.34
2023-05-13T13:17:58.494Z,24.97
2023-05-13T13:20:26.345Z,25.42
2023-05-13T13:22:54.696Z,25.20
2023-05-13T13:25:22.762Z,25.53
2023-05-13T13:27:50.925Z,25.19
2023-05-13T13:30:18.571Z,24.93
2023-05-13T13:32:46.251Z,25.29
2023-05-13T13:35:13.905Z,25.77
2023-05-13T13:37:41.597Z,26.23
2023-05-13T13:40:10.001Z,26.44
2023-05-13T13:42:44.199Z,26.69
2023-05-13T13:45:13.732Z,26.99
2023-05-13T13:47:42.920Z,26.78
2023-05-13T13:50:10.936Z,26.71
2023-05-13T13:52:38.738Z,26.57
2023-05-13T13:55:07.421Z,26.63
2023-05-13T13:57:35.362Z,26.84
2023-05-13T14:00:03.555Z,27.62
2023-05-13T14:02:32.652Z,27.46
2023-05-13T14:05:00.581Z,26.96
2023-05-13T14:07:28.452Z,27.38
2023-05-13T14:09:56.287Z,27.60
2023-05-13T14:12:25.355Z,27.73
2023-05-13T14:14:53.033Z,27.54
2023-05-13T14:17:20.998Z,26.67
2023-05-13T14:19:51.673Z,27.15
2023-05-13T14:22:19.367Z,27.05
2023-05-13T14:24:47.360Z,26.97
2023-05-13T14:27:15.093Z,26.08
2023-05-13T14:29:42.812Z,26.68
2023-05-13T14:32:10.499Z,26.48
2023-05-13T14:34:38.207Z,26.36
2023-05-13T14:37:05.955Z,26.42
2023-05-13T14:39:33.773Z,27.22
2023-05-13T14:42:01.820Z,27.26
2023-05-13T14:44:29.510Z,26.32
2023-05-13T14:46:57.414Z,26.60
2023-05-13T14:49:25.343Z,26.69
2023-05-13T14:51:53.032Z,26.90
2023-05-13T14:54:22.145Z,27.27
2023-05-13T14:56:52.156Z,26.96
2023-05-13T14:59:19.926Z,27.72
2023-05-13T15:01:47.781Z,27.56
2023-05-13T15:04:15.507Z,26.60
2023-05-13T15:06:43.773Z,27.04
2023-05-13T15:09:11.482Z,27.08
2023-05-13T15:11:42.186Z,27.31
2023-05-13T15:14:09.964Z,26.92
2023-05-13T15:16:37.941Z,27.87
2023-05-13T15:19:07.496Z,27.41
2023-05-13T15:21:35.470Z,27.27
2023-05-13T15:24:03.621Z,27.67
2023-05-13T15:26:31.563Z,27.61
2023-05-13T15:28:59.232Z,27.75
2023-05-13T15:31:26.974Z,28.03
2023-05-13T15:33:54.778Z,27.98
2023-05-13T15:36:22.502Z,28.38
2023-05-13T15:38:50.306Z,27.98
2023-05-13T15:41:17.938Z,28.19
2023-05-13T15:43:45.625Z,27.63
2023-05-13T15:46:13.504Z,28.02
2023-05-13T15:48:41.307Z,28.40
2023-05-13T15:51:09.144Z,28.59
2023-05-13T15:53:36.873Z,28.41
2023-05-13T15:56:04.949Z,27.88
2023-05-13T15:58:32.646Z,27.70
2023-05-13T16:01:00.578Z,27.85
2023-05-13T16:03:28.488Z,27.77
2023-05-13T16:05:56.295Z,28.11
2023-05-13T16:08:24.227Z,28.28
2023-05-13T16:10:51.865Z,27.97
2023-05-13T16:13:20.559Z,28.64
2023-05-13T16:15:48.207Z,28.89
2023-05-13T16:18:15.989Z,28.86
2023-05-13T16:20:44.295Z,28.67
2023-05-13T16:23:11.997Z,29.04
2023-05-13T16:25:39.955Z,29.32
2023-05-13T16:28:07.562Z,29.58
2023-05-13T16:30:35.749Z,29.42
2023-05-13T16:33:03.618Z,30.45
2023-05-13T16:35:31.366Z,31.11
2023-05-13T16:37:59.013Z,32.12
2023-05-13T16:40:26.788Z,32.27
2023-05-13T16:42:57.048Z,32.29
2023-05-13T16:45:26.785Z,32.75
2023-05-13T16:47:54.580Z,32.60
2023-05-13T16:50:23.064Z,33.34
2023-05-13T16:52:50.839Z,33.49
2023-05-13T16:55:18.493Z,33.40
2023-05-13T16:57:46.841Z,33.61
2023-05-13T17:00:16.059Z,34.49
2023-05-13T17:02:43.832Z,34.50
2023-05-13T17:05:11.594Z,34.68
2023-05-13T17:07:39.623Z,34.83
2023-05-13T17:10:07.945Z,35.46
2023-05-13T17:12:35.580Z,34.91
2023-05-13T17:15:04.163Z,36.21
2023-05-13T17:17:31.961Z,36.07
2023-05-13T17:19:59.899Z,35.85
2023-05-13T17:22:27.855Z,36.69
2023-05-13T17:24:56.110Z,37.48
2023-05-13T17:27:23.832Z,38.56
2023-05-13T17:29:51.573Z,37.96
2023-05-13T17:32:19.434Z,38.32
2023-05-13T17:34:47.050Z,38.35
2023-05-13T17:37:14.802Z,38.46
2023-05-13T17:39:42.782Z,38.91
2023-05-13T17:42:10.586Z,39.36
2023-05-13T17:44:38.272Z,39.63
2023-05-13T17:47:06.209Z,39.27
2023-05-13T17:49:33.856Z,40.45
2023-05-13T17:52:01.494Z,40.04
2023-05-13T17:54:29.173Z,39.56
2023-05-13T17:56:56.885Z,38.69
2023-05-13T17:59:24.623Z,39.03
2023-05-13T18:01:52.378Z,38.66
2023-05-13T18:04:20.283Z,38.67
2023-05-13T18:06:48.425Z,39.04
2023-05-13T18:09:16.064Z,38.76
2023-05-13T18:11:44.345Z,39.53
2023-05-13T18:14:12.135Z,40.04
2023-05-13T18:16:39.914Z,40.40
2023-05-13T18:19:07.785Z,41.16
2023-05-13T18:21:35.587Z,42.25
2023-05-13T18:24:04.946Z,42.90
2023-05-13T18:26:32.738Z,43.48
2023-05-13T18:29:00.591Z,43.35
2023-05-13T18:31:28.489Z,44.07
2023-05-13T18:33:56.154Z,44.84
2023-05-13T18:36:23.850Z,44.91
2023-05-13T18:38:53.900Z,45.31
2023-05-13T18:41:22.477Z,45.51
2023-05-13T18:43:50.499Z,46.24
2023-05-13T18:46:18.477Z,47.42
2023-05-13T18:48:46.530Z,47.59
2023-05-13T18:51:16.406Z,47.27
2023-05-13T18:53:45.297Z,48.18
2023-05-13T18:56:13.294Z,49.14
2023-05-13T18:58:41.073Z,49.46
2023-05-13T19:01:08.816Z,50.05
2023-05-13T19:03:37.038Z,50.64
2023-05-13T19:06:04.988Z,51.58
2023-05-13T19:08:32.670Z,51.86
2023-05-13T19:11:00.602Z,51.12
2023-05-13T19:13:39.411Z,53.25
2023-05-13T19:16:14.738Z,53.36
2023-05-13T19:18:42.662Z,52.78
2023-05-13T19:21:10.729Z,53.68
2023-05-13T19:23:38.534Z,53.80
2023-05-13T19:26:06.363Z,53.14
2023-05-13T19:28:34.837Z,53.96
2023-05-13T19:31:04.298Z,55.10
2023-05-13T19:33:32.178Z,55.37
2023-05-13T19:35:59.944Z,55.77
2023-05-13T19:38:27.688Z,56.14
2023-05-13T19:40:55.475Z,57.19
2023-05-13T19:43:24.547Z,57.04
2023-05-13T19:45:55.732Z,57.78
2023-05-13T19:48:23.660Z,58.54
2023-05-13T19:50:53.530Z,58.69
2023-05-13T19:53:22.096Z,58.46
2023-05-13T19:55:50.159Z,59.15
2023-05-13T19:58:18.010Z,58.48
2023-05-13T20:00:46.435Z,59.24
2023-05-13T20:03:14.628Z,59.56
2023-05-13T20:05:42.554Z,59.94
2023-05-13T20:08:10.368Z,60.21
2023-05-13T20:10:38.057Z,60.94
2023-05-13T20:13:07.189Z,61.44
2023-05-13T20:15:34.931Z,61.05
2023-05-13T20:18:02.621Z,61.18
2023-05-13T20:20:30.357Z,62.30
2023-05-13T20:22:58.031Z,62.23
2023-05-13T20:25:25.937Z,63.29
2023-05-13T20:27:53.604Z,63.63
2023-05-13T20:30:21.871Z,64.20
2023-05-13T20:32:49.842Z,64.08
2023-05-13T20:35:17.765Z,64.31
2023-05-13T20:37:45.421Z,64.71
2023-05-13T20:40:13.153Z,63.89
2023-05-13T20:42:41.435Z,64.66
2023-05-13T20:45:09.326Z,65.81
2023-05-13T20:47:37.072Z,64.66
2023-05-13T20:50:05.666Z,65.80
2023-05-13T20:52:33.720Z,66.23
2023-05-13T20:55:01.472Z,66.34
2023-05-13T20:57:31.337Z,67.67
2023-05-13T20:59:59.052Z,67.14
2023-05-13T21:02:26.780Z,67.01
2023-05-13T21:04:54.445Z,67.22
2023-05-13T21:07:22.105Z,67.65
2023-05-13T21:09:49.823Z,69.82
2023-05-13T21:12:17.493Z,68.49
2023-05-13T21:14:45.220Z,68.00
2023-05-13T21:17:12.866Z,70.02
2023-05-13T21:19:40.612Z,69.89
2023-05-13T21:22:08.249Z,70.10
2023-05-13T21:24:35.964Z,70.42
2023-05-13T21:27:03.817Z,69.39
2023-05-13T21:29:31.588Z,69.62
2023-05-13T21:31:59.492Z,72.29
2023-05-13T21:34:27.199Z,70.52
2023-05-13T21:36:54.929Z,70.58
2023-05-13T21:39:22.745Z,70.58
2023-05-13T21:41:50.428Z,70.57
2023-05-13T21:44:18.086Z,70.67
2023-05-13T21:46:45.991Z,70.83
2023-05-13T21:49:13.780Z,70.79
2023-05-13T21:51:41.422Z,70.07
2023-05-13T21:54:09.194Z,70.90
2023-05-13T21:56:36.846Z,70.34
2023-05-13T21:59:04.563Z,70.68
2023-05-13T22:01:32.363Z,72.76
2023-05-13T22:04:00.421Z,72.73
2023-05-13T22:06:28.069Z,73.44
2023-05-13T22:08:55.854Z,72.31
2023-05-13T22:11:23.753Z,73.00
2023-05-13T22:13:51.443Z,72.51
2023-05-13T22:16:19.134Z,72.82
2023-05-13T22:18:48.803Z,72.93
2023-05-13T22:21:16.731Z,73.22
2023-05-13T22:23:44.462Z,73.67
2023-05-13T22:26:12.217Z,72.92
2023-05-13T22:28:39.994Z,73.07
2023-05-13T22:31:08.378Z,73.78
2023-05-13T22:33:36.104Z,74.11
2023-05-13T22:36:04.008Z,74.65
2023-05-13T22:38:32.132Z,74.81
2023-05-13T22:44:22.828Z,73.91
2023-05-13T22:46:52.837Z,74.18
2023-05-13T22:49:20.857Z,74.63
2023-05-13T22:51:48.546Z,74.85
2023-05-13T22:54:16.185Z,75.44
2023-05-13T22:56:43.932Z,75.95
2023-05-13T22:59:11.772Z,76.13
2023-05-13T23:01:39.544Z,76.18
2023-05-13T23:04:07.415Z,76.49
2023-05-13T23:06:35.270Z,75.84
2023-05-13T23:09:03.025Z,75.79
2023-05-13T23:11:30.819Z,76.49
2023-05-13T23:13:58.484Z,75.55
2023-05-13T23:16:26.408Z,75.40
2023-05-13T23:18:55.863Z,75.70
2023-05-13T23:21:23.587Z,75.15
2023-05-13T23:23:52.125Z,75.40
2023-05-13T23:26:20.192Z,74.90
2023-05-13T23:28:47.841Z,76.26
2023-05-13T23:31:16.554Z,74.83
2023-05-13T23:33:44.396Z,76.06
2023-05-13T23:36:12.542Z,76.20
2023-05-13T23:38:41.895Z,76.86
2023-05-13T23:41:09.591Z,76.62
2023-05-13T23:43:37.398Z,76.38
2023-05-13T23:46:05.627Z,76.75
2023-05-13T23:48:33.419Z,76.13
2023-05-13T23:51:01.426Z,77.18
2023-05-13T23:53:29.148Z,77.09
2023-05-13T23:55:57.315Z,77.80
2023-05-13T23:58:26.295Z,77.45
